createdAt,value
2019-01-31T00:03:35.079Z,80.60
2019-01-31T00:06:15.715Z,80.70
2019-01-31T00:08:56.417Z,80.70
2019-01-31T00:11:37.181Z,80.70
2019-01-31T00:14:17.951Z,80.70
2019-01-31T00:16:58.505Z,80.90
2019-01-31T00:19:39.605Z,81.00
2019-01-31T00:22:20.941Z,81.00
2019-01-31T00:25:02.581Z,81.00
2019-01-31T00:27:43.819Z,81.00
2019-01-31T00:30:29.930Z,81.00
2019-01-31T00:33:37.483Z,81.10
2019-01-31T00:36:18.652Z,81.10
2019-01-31T00:38:59.189Z,81.10
2019-01-31T00:41:39.945Z,81.20
2019-01-31T00:44:21.428Z,81.10
2019-01-31T00:50:51.817Z,81.20
2019-01-31T00:53:33.383Z,81.30
2019-01-31T00:56:14.137Z,81.40
2019-01-31T00:58:55.701Z,81.50
2019-01-31T01:01:36.948Z,81.50
2019-01-31T01:04:18.346Z,81.50
2019-01-31T01:06:59.950Z,81.40
2019-01-31T01:09:40.924Z,81.40
2019-01-31T01:12:22.042Z,81.30
2019-01-31T01:15:02.809Z,81.30
2019-01-31T01:17:44.269Z,81.20
2019-01-31T01:20:25.834Z,81.10
2019-01-31T01:23:06.662Z,81.10
2019-01-31T01:25:47.748Z,81.30
2019-01-31T01:28:28.892Z,81.30
2019-01-31T01:31:09.990Z,81.50
2019-01-31T01:33:50.627Z,81.50
2019-01-31T01:42:08.826Z,79.80
2019-01-31T01:44:50.393Z,80.90
2019-01-31T01:47:31.822Z,81.30
2019-01-31T01:50:13.172Z,81.40
2019-01-31T01:52:53.916Z,81.50
2019-01-31T01:55:34.991Z,81.50
2019-01-31T01:58:16.312Z,81.60
2019-01-31T02:00:57.728Z,81.80
2019-01-31T02:03:39.058Z,82.10
2019-01-31T02:06:20.270Z,82.20
2019-01-31T02:09:01.809Z,82.50
2019-01-31T02:11:43.261Z,82.60
2019-01-31T02:14:48.695Z,82.70
2019-01-31T02:20:57.154Z,83.00
2019-01-31T02:23:37.856Z,83.30
2019-01-31T02:26:19.351Z,83.50
2019-01-31T02:29:00.115Z,83.50
2019-01-31T02:31:41.364Z,83.80
2019-01-31T02:34:22.640Z,83.80
2019-01-31T02:37:04.127Z,84.10
2019-01-31T02:39:45.634Z,84.20
2019-01-31T02:42:27.015Z,84.20
2019-01-31T02:45:08.603Z,84.20
2019-01-31T02:47:50.071Z,84.10
2019-01-31T02:50:30.617Z,84.00
2019-01-31T02:53:11.729Z,83.90
2019-01-31T02:55:52.435Z,83.90
2019-01-31T02:58:33.941Z,83.80
2019-01-31T03:01:15.007Z,83.70
2019-01-31T03:03:56.122Z,83.70
2019-01-31T03:06:36.871Z,83.50
2019-01-31T03:09:18.232Z,83.40
2019-01-31T03:11:59.167Z,83.50
2019-01-31T03:14:40.010Z,84.20
2019-01-31T03:17:21.074Z,83.40
2019-01-31T03:20:02.274Z,83.20
2019-01-31T03:22:43.016Z,83.20
2019-01-31T03:25:23.786Z,83.20
2019-01-31T03:28:04.514Z,83.00
2019-01-31T03:30:45.470Z,82.80
2019-01-31T03:33:26.683Z,82.50
2019-01-31T03:36:07.407Z,82.40
2019-01-31T03:38:48.955Z,82.50
2019-01-31T03:41:29.537Z,82.10
2019-01-31T03:44:10.791Z,81.90
2019-01-31T03:46:52.291Z,81.80
2019-01-31T03:49:33.117Z,81.80
2019-01-31T03:52:14.370Z,81.90
2019-01-31T03:54:55.599Z,81.90
2019-01-31T03:57:37.191Z,82.10
2019-01-31T04:00:22.290Z,82.10
2019-01-31T04:03:02.904Z,82.10
2019-01-31T04:05:43.549Z,82.10
2019-01-31T04:08:24.720Z,82.00
2019-01-31T04:11:05.811Z,81.70
2019-01-31T04:13:46.632Z,81.70
2019-01-31T04:16:27.819Z,81.50
2019-01-31T04:19:08.583Z,81.50
2019-01-31T04:21:49.779Z,81.40
2019-01-31T04:24:30.464Z,81.40
2019-01-31T04:27:10.026Z,81.20
2019-01-31T04:29:51.407Z,81.30
2019-01-31T04:32:32.945Z,81.30
2019-01-31T04:35:14.047Z,81.30
2019-01-31T04:37:55.364Z,81.40
2019-01-31T04:40:36.898Z,81.50
2019-01-31T04:43:18.480Z,81.60
2019-01-31T04:46:00.053Z,81.70
2019-01-31T04:48:40.850Z,81.70
2019-01-31T04:51:20.269Z,81.80
2019-01-31T04:57:09.305Z,82.00
2019-01-31T04:59:50.181Z,82.20
2019-01-31T05:02:31.353Z,82.30
2019-01-31T05:05:11.975Z,82.30
2019-01-31T05:07:53.117Z,82.30
2019-01-31T05:10:42.780Z,82.20
2019-01-31T05:13:16.577Z,82.40
2019-01-31T05:15:57.932Z,82.50
2019-01-31T05:18:37.902Z,82.50
2019-01-31T05:24:26.191Z,82.60
2019-01-31T05:27:07.500Z,82.60
2019-01-31T05:29:48.519Z,82.60
2019-01-31T05:32:29.659Z,82.70
2019-01-31T05:35:11.183Z,82.80
2019-01-31T05:37:52.556Z,82.80
2019-01-31T05:40:33.199Z,82.90
2019-01-31T05:43:12.607Z,82.90
2019-01-31T05:45:53.451Z,82.90
2019-01-31T05:48:34.964Z,83.00
2019-01-31T05:51:16.106Z,83.20
2019-01-31T05:53:57.581Z,83.40
2019-01-31T05:56:39.026Z,83.50
2019-01-31T05:59:19.970Z,83.70
2019-01-31T06:02:01.413Z,83.60
2019-01-31T06:04:42.004Z,84.10
2019-01-31T06:07:23.366Z,84.70
2019-01-31T06:10:04.192Z,84.80
2019-01-31T06:12:43.640Z,84.70
2019-01-31T06:15:32.117Z,84.70
2019-01-31T06:18:12.899Z,84.80
2019-01-31T06:20:54.019Z,85.10
2019-01-31T06:23:35.443Z,85.50
2019-01-31T06:26:16.358Z,85.80
2019-01-31T06:28:57.869Z,86.00
2019-01-31T06:31:39.134Z,85.90
2019-01-31T06:34:20.423Z,85.90
2019-01-31T06:37:01.625Z,86.10
2019-01-31T06:39:42.298Z,86.00
2019-01-31T06:42:23.005Z,86.10
2019-01-31T06:45:03.586Z,87.30
2019-01-31T06:47:43.603Z,86.70
2019-01-31T06:50:24.240Z,86.90
2019-01-31T06:53:05.773Z,87.10
2019-01-31T06:58:13.516Z,87.50
2019-01-31T07:00:54.235Z,87.50
2019-01-31T07:03:33.828Z,87.60
2019-01-31T07:06:22.380Z,87.50
2019-01-31T07:09:03.080Z,87.30
2019-01-31T07:11:44.432Z,87.20
2019-01-31T07:14:25.643Z,87.20
2019-01-31T07:17:06.865Z,86.90
2019-01-31T07:19:48.048Z,86.60
2019-01-31T07:22:27.603Z,86.20
2019-01-31T07:25:08.305Z,85.90
2019-01-31T07:27:49.853Z,85.70
2019-01-31T07:30:30.799Z,86.50
2019-01-31T07:33:12.195Z,85.50
2019-01-31T07:35:53.607Z,85.40
2019-01-31T07:38:34.379Z,85.10
2019-01-31T07:41:15.637Z,85.10
2019-01-31T07:43:57.205Z,85.00
2019-01-31T07:46:38.796Z,84.80
2019-01-31T07:49:20.115Z,84.80
2019-01-31T07:52:01.620Z,84.70
2019-01-31T07:54:42.768Z,84.50
2019-01-31T07:57:23.769Z,84.60
2019-01-31T08:00:04.485Z,84.90
2019-01-31T08:02:44.055Z,85.40
2019-01-31T08:08:32.319Z,84.30
2019-01-31T08:11:13.634Z,83.60
2019-01-31T08:13:55.056Z,83.30
2019-01-31T08:16:36.060Z,82.60
2019-01-31T08:19:17.092Z,82.00
2019-01-31T08:21:57.919Z,81.80
2019-01-31T08:24:39.059Z,81.50
2019-01-31T08:27:18.521Z,81.00
2019-01-31T08:29:59.247Z,80.70
2019-01-31T08:41:16.025Z,80.80
2019-01-31T08:43:57.274Z,79.40
2019-01-31T08:46:38.177Z,79.70
2019-01-31T10:25:53.713Z,79.60
2019-01-31T10:28:54.454Z,76.70
2019-01-31T10:31:35.688Z,75.60
2019-01-31T10:34:16.299Z,74.30
2019-01-31T10:36:56.896Z,73.60
2019-01-31T10:39:37.606Z,73.60
2019-01-31T10:42:18.218Z,73.80
2019-01-31T10:44:59.591Z,73.80
2019-01-31T10:47:47.509Z,73.40
2019-01-31T10:53:38.773Z,72.90
2019-01-31T10:56:19.890Z,73.40
2019-01-31T10:59:00.685Z,73.20
2019-01-31T11:01:41.711Z,73.10
2019-01-31T11:04:23.134Z,73.80
2019-01-31T11:07:04.691Z,73.80
2019-01-31T11:09:46.273Z,74.20
2019-01-31T11:12:27.211Z,74.80
2019-01-31T11:15:08.756Z,74.70
2019-01-31T11:17:50.275Z,74.70
2019-01-31T11:20:31.604Z,75.00
2019-01-31T11:23:13.108Z,75.00
2019-01-31T11:25:54.635Z,75.40
2019-01-31T11:28:36.217Z,75.60
2019-01-31T16:10:55.936Z,75.70
2019-01-31T16:13:36.985Z,84.80
2019-01-31T16:16:20.151Z,85.50
2019-01-31T16:19:01.269Z,85.70
2019-01-31T16:21:42.822Z,86.10
2019-01-31T16:24:24.294Z,86.30
2019-01-31T16:27:05.822Z,86.10
2019-01-31T16:29:47.208Z,86.30
2019-01-31T16:32:28.129Z,86.00
2019-01-31T16:35:08.914Z,86.00
2019-01-31T16:37:49.861Z,86.50
2019-01-31T16:40:30.532Z,85.70
2019-01-31T16:43:11.994Z,85.60
2019-01-31T16:45:52.977Z,85.60
2019-01-31T16:48:34.397Z,85.40
2019-01-31T16:51:15.982Z,85.10
2019-01-31T16:53:57.196Z,85.10
2019-01-31T16:56:38.527Z,85.00
2019-01-31T16:59:19.991Z,85.00
2019-01-31T17:01:59.513Z,85.00
2019-01-31T17:04:41.013Z,85.00
2019-01-31T17:07:22.019Z,85.00
2019-01-31T17:10:03.506Z,85.10
2019-01-31T17:12:43.051Z,85.00
2019-01-31T17:15:24.531Z,85.10
2019-01-31T17:18:05.327Z,85.60
2019-01-31T17:20:46.932Z,85.00
2019-01-31T17:23:28.372Z,85.00
2019-01-31T17:26:09.847Z,85.00
2019-01-31T17:28:50.475Z,85.00
2019-01-31T17:31:31.808Z,85.00
2019-01-31T17:34:13.289Z,85.00
2019-01-31T17:36:53.986Z,84.90
2019-01-31T17:39:35.339Z,85.00
2019-01-31T17:42:16.901Z,85.00
2019-01-31T17:44:57.479Z,85.00
2019-01-31T17:47:38.242Z,85.00
2019-01-31T17:50:19.702Z,85.00
2019-01-31T17:53:00.927Z,85.00
2019-01-31T17:55:41.883Z,85.20
2019-01-31T17:58:22.797Z,85.20
2019-01-31T18:01:04.547Z,85.50
2019-01-31T18:03:45.401Z,85.60
2019-01-31T18:06:26.825Z,85.90
2019-01-31T18:09:08.979Z,85.70
2019-01-31T18:14:57.569Z,85.60
2019-01-31T18:17:38.770Z,85.70
2019-01-31T18:20:19.790Z,85.90
2019-01-31T18:23:01.294Z,86.10
2019-01-31T18:25:42.123Z,85.90
2019-01-31T18:28:21.766Z,85.70
2019-01-31T18:31:03.243Z,85.80
2019-01-31T18:33:42.878Z,85.90
2019-01-31T18:36:24.065Z,85.90
2019-01-31T18:39:05.488Z,86.00
2019-01-31T18:41:46.558Z,86.10
2019-01-31T18:44:27.143Z,86.00
2019-01-31T18:47:08.207Z,86.10
2019-01-31T18:49:49.574Z,86.00
2019-01-31T18:52:30.811Z,86.00
2019-01-31T18:55:11.668Z,86.00
2019-01-31T18:57:52.292Z,86.00
2019-01-31T19:00:33.569Z,86.10
2019-01-31T19:03:14.368Z,86.00
2019-01-31T19:05:55.653Z,86.00
2019-01-31T19:08:37.036Z,85.70
2019-01-31T19:11:18.458Z,85.70
2019-01-31T19:13:59.830Z,85.60
2019-01-31T19:16:40.963Z,85.50
2019-01-31T19:19:22.188Z,85.40
2019-01-31T19:22:02.792Z,85.40
2019-01-31T19:24:43.854Z,85.30
2019-01-31T19:27:25.033Z,85.20
2019-01-31T19:30:05.980Z,85.10
2019-01-31T19:32:47.223Z,85.10
2019-01-31T19:35:28.735Z,85.00
2019-01-31T19:38:09.745Z,85.00
2019-01-31T19:40:50.412Z,85.00
2019-01-31T19:43:30.441Z,85.00
2019-01-31T19:46:16.489Z,85.10
2019-01-31T19:48:54.145Z,85.10
2019-01-31T19:51:35.065Z,85.10
2019-01-31T19:54:15.813Z,85.10
2019-01-31T19:56:57.110Z,85.00
2019-01-31T19:59:37.853Z,85.00
2019-01-31T20:02:18.452Z,85.10
2019-01-31T20:04:57.978Z,85.10
2019-01-31T20:07:38.719Z,84.80
2019-01-31T20:10:20.213Z,85.00
2019-01-31T20:13:01.583Z,85.00
2019-01-31T20:15:43.034Z,85.00
2019-01-31T20:18:24.259Z,84.90
2019-01-31T20:21:05.306Z,84.90
2019-01-31T20:23:44.741Z,84.90
2019-01-31T20:26:33.166Z,84.80
2019-01-31T20:29:14.312Z,84.90
2019-01-31T20:31:55.511Z,85.00
2019-01-31T20:34:37.999Z,85.00
2019-01-31T20:37:18.707Z,85.00
2019-01-31T20:39:59.889Z,84.90
2019-01-31T20:42:40.605Z,85.00
2019-01-31T20:45:21.612Z,84.90
2019-01-31T20:48:03.206Z,84.90
2019-01-31T20:50:44.258Z,84.80
2019-01-31T20:53:25.578Z,84.80
2019-01-31T20:56:06.679Z,84.80
2019-01-31T20:58:48.008Z,84.80
2019-01-31T21:01:29.152Z,84.80
2019-01-31T21:04:10.758Z,84.80
2019-01-31T21:06:50.714Z,84.80
2019-01-31T21:09:39.231Z,84.80
2019-01-31T21:12:20.036Z,85.00
2019-01-31T21:15:01.366Z,84.90
2019-01-31T21:17:42.509Z,85.00
2019-01-31T21:20:26.225Z,85.00
2019-01-31T21:23:06.241Z,84.90
2019-01-31T21:25:45.740Z,84.80
2019-01-31T21:28:26.347Z,84.80
2019-01-31T21:31:06.966Z,84.80
2019-01-31T21:33:48.456Z,84.70
2019-01-31T21:36:29.904Z,84.80
2019-01-31T21:39:11.295Z,84.60
2019-01-31T21:41:50.740Z,84.50
2019-01-31T21:44:31.596Z,84.60
2019-01-31T21:47:13.118Z,84.60
2019-01-31T21:49:54.088Z,84.60
2019-01-31T21:52:34.876Z,84.50
2019-01-31T21:55:16.295Z,84.50
2019-01-31T21:57:57.813Z,84.50
2019-01-31T22:00:38.814Z,84.40
2019-01-31T22:03:19.546Z,84.40
2019-01-31T22:06:00.569Z,84.40
2019-01-31T22:08:41.942Z,84.40
2019-01-31T22:11:21.973Z,84.40
2019-01-31T22:17:14.822Z,84.50
2019-01-31T22:19:53.035Z,84.40
2019-01-31T22:22:34.140Z,84.50
2019-01-31T22:25:14.916Z,84.70
2019-01-31T22:27:56.424Z,84.90
2019-01-31T22:30:37.936Z,84.90
2019-01-31T22:33:19.294Z,84.90
2019-01-31T22:36:00.600Z,85.00
2019-01-31T22:38:41.775Z,85.00
2019-01-31T22:41:23.044Z,85.30
2019-01-31T22:44:04.551Z,85.50
2019-01-31T22:46:45.531Z,85.50
2019-01-31T22:49:26.875Z,85.50
2019-01-31T22:52:07.838Z,85.50
2019-01-31T22:54:48.914Z,85.70
2019-01-31T22:57:30.164Z,85.60
2019-01-31T23:00:11.912Z,85.80
2019-01-31T23:02:52.674Z,85.90
2019-01-31T23:05:34.017Z,86.10
2019-01-31T23:08:15.476Z,86.20
2019-01-31T23:10:56.021Z,86.50
2019-01-31T23:13:36.730Z,87.30
2019-01-31T23:16:17.322Z,87.50
2019-01-31T23:18:58.659Z,87.70
2019-01-31T23:21:39.661Z,87.60
2019-01-31T23:24:20.651Z,87.80
2019-01-31T23:27:02.207Z,87.90
2019-01-31T23:29:43.739Z,88.20
2019-01-31T23:32:25.208Z,88.40
2019-01-31T23:35:06.631Z,88.50
2019-01-31T23:37:47.647Z,88.40
2019-01-31T23:40:29.164Z,88.40
2019-01-31T23:43:09.778Z,88.50
2019-01-31T23:45:51.164Z,88.70
2019-01-31T23:48:32.213Z,89.10
2019-01-31T23:51:13.449Z,89.80
2019-01-31T23:53:54.594Z,90.00
2019-01-31T23:59:14.576Z,90.00
